.
WxDataArchive / Data Records for 2011-11-27
2011-11-26 November 2011 2011-11-28

Data Records for Sunday, 27 November 2011

Time	Temp	Chill	HIndex	Humid	Dewpt	 Wind 	HiWind	WindDir	Rain 	Barom 
-----	----	-----	------	-----	-----	------	------	-------	-----	----- 
00:00	58.1	58.1	58.1	72	49.1	1	4	112	0.00	29.813 
00:05	57.8	57.8	57.8	73	49.2	1	5	68	0.00	29.813 
00:10	57.6	57.6	57.6	74	49.4	1	3	68	0.00	29.813 
00:15	57.5	57.5	57.5	75	49.6	1	3	112	0.00	29.811 
00:20	57.2	57.2	57.2	75	49.3	1	4	68	0.00	29.811 
00:25	57.0	57.0	57.0	77	49.9	0	3	135	0.00	29.811 
00:30	56.7	56.7	56.7	77	49.6	1	4	112	0.01	29.807 
00:35	56.6	56.6	56.6	79	50.2	1	3	112	0.00	29.807 
00:40	56.3	56.3	56.3	80	50.2	1	3	112	0.00	29.807 
00:45	56.0	56.0	56.0	81	50.3	0	1	112	0.01	29.802 
00:50	55.7	55.7	55.7	83	50.6	0	2	112	0.00	29.802 
00:55	55.6	55.6	55.6	84	50.8	0	3	112	0.01	29.802 
01:00	55.3	55.3	55.3	84	50.5	1	4	112	0.00	29.798 
01:05	55.1	55.1	55.1	84	50.4	1	2	112	0.01	29.798 
01:10	55.1	55.1	55.1	85	50.7	1	2	112	0.00	29.798 
01:15	55.0	55.0	55.0	86	50.9	0	4	112	0.00	29.795 
01:20	54.8	54.8	54.8	86	50.7	1	3	135	0.00	29.795 
01:25	54.7	54.7	54.7	86	50.6	1	3	135	0.01	29.795 
01:30	54.7	54.7	54.7	86	50.6	1	3	135	0.00	29.785 
01:35	54.7	54.7	54.7	86	50.6	1	4	135	0.00	29.785 
01:40	54.7	54.7	54.7	87	50.9	0	2	68	0.00	29.785 
01:45	54.7	54.7	54.7	87	50.9	0	2	68	0.00	29.779 
01:50	54.7	54.7	54.7	87	50.9	0	2	68	0.00	29.779 
01:55	54.7	54.7	54.7	87	50.9	0	1	68	0.00	29.779 
02:00	54.7	54.7	54.7	87	50.9	0	2	68	0.00	29.775 
02:05	54.8	54.8	54.8	87	51.0	1	4	90	0.00	29.775 
02:10	54.8	54.8	54.8	87	51.0	1	4	112	0.00	29.775 
02:15	55.0	55.0	55.0	86	50.9	0	3	112	0.00	29.770 
02:20	55.1	55.1	55.1	86	51.0	1	6	45	0.01	29.770 
02:25	55.1	55.1	55.1	86	51.0	1	7	90	0.00	29.770 
02:30	55.3	55.3	55.3	86	51.2	1	3	112	0.00	29.768 
02:35	55.4	55.4	55.4	86	51.3	1	4	248	0.00	29.768 
02:40	55.6	55.6	55.6	85	51.2	1	3	248	0.00	29.768 
02:45	55.6	55.6	55.6	85	51.2	1	4	248	0.00	29.767 
02:50	55.7	55.7	55.7	84	50.9	1	5	270	0.00	29.767 
02:55	55.9	55.9	55.9	84	51.1	1	4	248	0.00	29.767 
03:00	56.0	56.0	56.0	84	51.2	1	5	68	0.00	29.766 
03:05	56.0	56.0	56.0	84	51.2	1	3	90	0.00	29.766 
03:10	56.0	56.0	56.0	84	51.2	1	3	90	0.00	29.766 
03:15	56.0	56.0	56.0	84	51.2	1	3	22	0.00	29.758 
03:20	56.0	56.0	56.0	84	51.2	1	4	248	0.00	29.758 
03:25	56.0	56.0	56.0	84	51.2	0	3	315	0.00	29.758 
03:30	55.9	55.9	55.9	85	51.5	1	6	315	0.00	29.754 
03:35	55.9	55.9	55.9	85	51.5	1	6	270	0.00	29.754 
03:40	56.0	56.0	56.0	85	51.6	1	6	225	0.00	29.754 
03:45	56.2	56.2	56.2	85	51.7	1	9	248	0.00	29.749 
03:50	56.2	56.2	56.2	85	51.7	1	9	315	0.00	29.749 
03:55	56.3	56.3	56.3	85	51.8	1	3	225	0.00	29.749 
04:00	56.3	56.3	56.3	85	51.8	1	9	248	0.00	29.745 
04:05	56.3	56.3	56.3	85	51.8	1	6	248	0.00	29.745 
04:10	56.3	56.3	56.3	85	51.8	1	7	270	0.00	29.745 
04:15	56.3	56.3	56.3	85	51.8	1	5	248	0.00	29.750 
04:20	56.3	56.3	56.3	86	52.2	1	4	248	0.01	29.750 
04:25	56.3	56.3	56.3	86	52.2	1	4	248	0.00	29.750 
04:30	56.2	56.2	56.2	87	52.4	1	3	248	0.00	29.744 
04:35	56.0	56.0	56.0	87	52.2	1	4	270	0.00	29.744 
04:40	55.9	55.9	55.9	88	52.4	1	4	248	0.01	29.744 
04:45	55.9	55.9	55.9	88	52.4	1	5	248	0.00	29.744 
04:50	55.7	55.7	55.7	89	52.5	1	4	90	0.00	29.744 
04:55	55.7	55.7	55.7	89	52.5	1	4	338	0.00	29.744 
05:00	55.7	55.7	55.7	89	52.5	1	4	248	0.00	29.751 
05:05	55.6	55.6	55.6	90	52.7	1	4	248	0.00	29.751 
05:10	55.6	55.6	55.6	90	52.7	1	4	248	0.00	29.751 
05:15	55.6	55.6	55.6	90	52.7	1	4	248	0.01	29.761 
05:20	55.4	55.4	55.4	91	52.8	0	4	248	0.00	29.761 
05:25	55.4	55.4	55.4	91	52.8	1	3	248	0.01	29.761 
05:30	55.4	55.4	55.4	91	52.8	0	3	248	0.00	29.758 
05:35	55.3	55.3	55.3	92	53.0	0	3	338	0.01	29.758 
05:40	55.3	55.3	55.3	92	53.0	0	1	338	0.00	29.758 
05:45	55.1	55.1	55.1	92	52.8	1	4	90	0.00	29.752 
05:50	55.1	55.1	55.1	92	52.8	1	2	248	0.00	29.752 
05:55	55.1	55.1	55.1	92	52.8	1	3	248	0.00	29.752 
06:00	55.1	55.1	55.1	92	52.8	1	5	248	0.00	29.757 
06:05	55.1	55.1	55.1	93	53.1	1	3	225	0.01	29.757 
06:10	55.1	55.1	55.1	93	53.1	1	3	225	0.00	29.757 
06:15	55.1	55.1	55.1	93	53.1	1	3	22	0.00	29.756 
06:20	55.1	55.1	55.1	93	53.1	1	3	270	0.00	29.756 
06:25	55.1	55.1	55.1	93	53.1	1	4	270	0.00	29.756 
06:30	55.1	55.1	55.1	93	53.1	1	3	248	0.01	29.756 
06:35	55.1	55.1	55.1	93	53.1	1	2	248	0.00	29.756 
06:40	55.1	55.1	55.1	93	53.1	1	3	248	0.00	29.756 
06:45	55.0	55.0	55.0	94	53.3	1	3	248	0.00	29.756 
06:50	55.0	55.0	55.0	94	53.3	0	2	248	0.01	29.756 
06:55	55.0	55.0	55.0	94	53.3	1	3	248	0.00	29.756 
07:00	55.0	55.0	55.0	94	53.3	1	5	248	0.00	29.754 
07:05	55.0	55.0	55.0	94	53.3	0	3	225	0.01	29.754 
07:10	55.0	55.0	55.0	94	53.3	0	3	225	0.00	29.754 
07:15	54.8	54.8	54.8	94	53.1	0	2	225	0.00	29.754 
07:20	54.8	54.8	54.8	94	53.1	0	2	225	0.00	29.754 
07:25	54.8	54.8	54.8	94	53.1	2	5	225	0.01	29.754 
07:30	54.1	54.1	54.1	93	52.1	1	4	248	0.00	29.761 
07:35	53.5	53.5	53.5	93	51.5	1	3	248	0.01	29.761 
07:40	53.1	53.1	53.1	94	51.4	1	3	248	0.00	29.761 
07:45	52.8	52.8	52.8	94	51.1	1	2	248	0.00	29.763 
07:50	52.6	52.6	52.6	94	50.9	0	2	248	0.00	29.763 
07:55	52.3	52.3	52.3	94	50.6	0	1	248	0.01	29.763 
08:00	52.2	52.2	52.2	94	50.5	0	2	248	0.00	29.767 
08:05	52.2	52.2	52.2	94	50.5	0	1	248	0.01	29.767 
08:10	52.0	52.0	52.0	94	50.3	1	2	248	0.00	29.767 
08:15	51.9	51.9	51.9	94	50.2	0	2	248	0.01	29.775 
08:20	51.6	51.6	51.6	94	49.9	2	4	248	0.00	29.775 
08:25	51.3	51.3	51.3	94	49.6	2	4	248	0.01	29.775 
08:30	50.8	50.8	50.8	94	49.1	2	4	248	0.00	29.781 
08:35	50.5	50.5	50.5	94	48.8	1	3	248	0.01	29.781 
08:40	50.4	50.4	50.4	94	48.7	1	3	248	0.01	29.781 
08:45	50.2	50.2	50.2	94	48.5	1	3	248	0.00	29.791 
08:50	50.1	50.1	50.1	94	48.4	1	3	248	0.01	29.791 
08:55	49.9	49.9	49.9	94	48.2	0	2	248	0.00	29.791 
09:00	49.8	49.8	49.8	94	48.1	2	3	248	0.00	29.793 
09:05	49.5	49.5	49.5	94	47.8	1	2	248	0.01	29.793 
09:10	49.5	49.5	49.5	94	47.8	0	1	248	0.00	29.793 
09:15	49.4	49.4	49.4	94	47.7	0	1	248	0.01	29.793 
09:20	49.4	49.4	49.4	94	47.7	0	1	248	0.01	29.793 
09:25	49.4	49.4	49.4	94	47.7	0	1	248	0.01	29.793 
09:30	49.2	49.2	49.2	95	47.8	0	1	248	0.01	29.794 
09:35	49.2	49.2	49.2	95	47.8	1	2	248	0.00	29.794 
09:40	49.2	49.2	49.2	95	47.8	0	2	248	0.01	29.794 
09:45	49.1	49.1	49.1	95	47.7	0	3	248	0.00	29.801 
09:50	49.2	49.2	49.2	95	47.8	0	2	248	0.01	29.801 
09:55	49.1	49.1	49.1	95	47.7	0	2	248	0.00	29.801 
10:00	49.1	49.1	49.1	95	47.7	0	2	248	0.00	29.797 
10:05	48.9	48.9	48.9	95	47.5	1	3	248	0.01	29.797 
10:10	48.9	48.9	48.9	95	47.5	1	3	248	0.00	29.797 
10:15	48.8	48.8	48.8	95	47.4	1	3	248	0.00	29.809 
10:20	48.8	48.8	48.8	95	47.4	1	2	248	0.00	29.809 
10:25	48.6	48.6	48.6	95	47.2	1	3	248	0.01	29.809 
10:30	48.5	48.5	48.5	95	47.1	1	2	248	0.00	29.806 
10:35	48.2	48.2	48.2	95	46.8	1	3	248	0.00	29.806 
10:40	48.0	48.0	48.0	95	46.6	1	3	248	0.01	29.806 
10:45	48.2	48.2	48.2	95	46.8	1	4	248	0.00	29.811 
10:50	48.2	48.2	48.2	95	46.8	1	3	248	0.01	29.811 
10:55	48.2	48.2	48.2	95	46.8	0	2	248	0.00	29.811 
11:00	48.0	48.0	48.0	95	46.6	1	4	270	0.00	29.805 
11:05	47.9	47.9	47.9	95	46.5	0	2	292	0.00	29.805 
11:10	47.7	47.7	47.7	95	46.3	1	4	292	0.00	29.805 
11:15	47.7	47.7	47.7	95	46.3	1	3	292	0.00	29.812 
11:20	47.6	47.6	47.6	95	46.2	1	2	292	0.00	29.812 
11:25	47.4	47.4	47.4	95	46.0	0	3	292	0.01	29.812 
11:30	47.3	47.3	47.3	95	45.9	1	2	292	0.00	29.823 
11:35	47.3	47.3	47.3	95	45.9	0	2	292	0.00	29.823 
11:40	47.3	47.3	47.3	95	45.9	0	2	292	0.01	29.823 
11:45	47.4	47.4	47.4	95	46.0	1	3	338	0.00	29.810 
11:50	47.4	47.4	47.4	95	46.0	1	3	338	0.00	29.810 
11:55	47.4	47.4	47.4	95	46.0	1	3	315	0.00	29.810 
12:00	47.6	47.6	47.6	95	46.2	0	2	315	0.01	29.808 
12:05	47.7	47.7	47.7	95	46.3	1	3	315	0.00	29.808 
12:10	47.7	47.7	47.7	95	46.3	0	3	292	0.00	29.808 
12:15	47.7	47.7	47.7	95	46.3	1	2	292	0.00	29.819 
12:20	47.7	47.7	47.7	95	46.3	1	3	292	0.00	29.819 
12:25	47.6	47.6	47.6	95	46.2	1	2	292	0.00	29.819 
12:30	47.4	47.4	47.4	95	46.0	1	3	315	0.00	29.814 
12:35	47.6	47.6	47.6	95	46.2	1	2	315	0.00	29.814 
12:40	47.6	47.6	47.6	95	46.2	1	4	315	0.00	29.814 
12:45	47.4	47.4	47.4	94	45.8	2	4	225	0.00	29.816 
12:50	47.4	47.4	47.4	94	45.8	1	4	338	0.01	29.816 
12:55	47.4	47.4	47.4	94	45.8	1	3	338	0.00	29.816 
13:00	47.6	47.6	47.6	94	46.0	1	3	338	0.00	29.814 
13:05	47.7	47.7	47.7	95	46.3	0	1	338	0.00	29.814 
13:10	47.9	47.9	47.9	94	46.3	1	3	338	0.00	29.814 
13:15	48.0	48.0	48.0	95	46.6	0	2	338	0.00	29.819 
13:20	48.0	48.0	48.0	94	46.4	1	3	338	0.00	29.819 
13:25	47.9	47.9	47.9	94	46.3	2	4	225	0.00	29.819 
13:30	47.7	47.7	47.7	94	46.1	1	3	248	0.00	29.830 
13:35	47.6	47.6	47.6	94	46.0	1	3	248	0.00	29.830 
13:40	47.6	47.6	47.6	94	46.0	1	3	248	0.00	29.830 
13:45	47.6	47.6	47.6	94	46.0	1	3	248	0.01	29.830 
13:50	47.4	47.4	47.4	94	45.8	1	4	248	0.00	29.830 
13:55	47.4	47.4	47.4	94	45.8	1	3	248	0.00	29.830 
14:00	47.6	47.6	47.6	94	46.0	1	3	248	0.00	29.819 
14:05	47.6	47.6	47.6	94	46.0	1	3	248	0.00	29.819 
14:10	47.6	47.6	47.6	94	46.0	0	1	338	0.01	29.819 
14:15	47.6	47.6	47.6	94	46.0	1	2	338	0.00	29.819 
14:20	47.6	47.6	47.6	94	46.0	0	3	338	0.00	29.819 
14:25	47.4	47.4	47.4	94	45.8	1	2	248	0.00	29.819 
14:30	47.4	47.4	47.4	94	45.8	0	2	248	0.00	29.816 
14:35	47.6	47.6	47.6	94	46.0	0	3	315	0.00	29.816 
14:40	47.4	47.4	47.4	94	45.8	2	4	292	0.00	29.816 
14:45	47.3	47.3	47.3	94	45.7	2	4	270	0.00	29.814 
14:50	47.3	47.3	47.3	94	45.7	1	4	270	0.00	29.814 
14:55	47.3	47.3	47.3	94	45.7	1	3	292	0.01	29.814 
15:00	47.0	47.0	47.0	93	45.1	1	4	315	0.00	29.819 
15:05	46.8	46.8	46.8	93	44.9	1	4	0	0.00	29.819 
15:10	46.8	46.8	46.8	93	44.9	1	5	338	0.00	29.819 
15:15	46.8	46.8	46.8	93	44.9	1	3	338	0.00	29.831 
15:20	46.7	46.7	46.7	93	44.8	2	3	315	0.00	29.831 
15:25	46.5	46.5	46.5	93	44.6	2	3	292	0.01	29.831 
15:30	46.5	46.5	46.5	93	44.6	1	2	338	0.00	29.835 
15:35	46.4	46.4	46.4	93	44.5	1	3	338	0.00	29.835 
15:40	46.4	46.4	46.4	93	44.5	1	3	315	0.00	29.835 
15:45	46.2	46.2	46.2	93	44.3	2	4	292	0.00	29.858 
15:50	46.1	46.1	46.1	93	44.2	1	4	338	0.00	29.858 
15:55	46.1	46.1	46.1	93	44.2	1	3	292	0.01	29.858 
16:00	46.1	46.1	46.1	93	44.2	1	2	292	0.00	29.854 
16:05	46.1	46.1	46.1	93	44.2	0	3	292	0.00	29.854 
16:10	46.0	46.0	46.0	93	44.1	1	3	292	0.00	29.854 
16:15	45.8	45.8	45.8	93	43.9	1	3	225	0.00	29.862 
16:20	45.7	45.7	45.7	93	43.8	0	2	0	0.00	29.862 
16:25	45.7	45.7	45.7	94	44.1	2	4	292	0.01	29.862 
16:30	45.5	45.5	45.5	94	43.9	1	3	270	0.00	29.878 
16:35	45.4	45.4	45.4	93	43.5	1	3	270	0.00	29.878 
16:40	45.2	45.2	45.2	94	43.6	1	3	270	0.00	29.878 
16:45	45.2	45.2	45.2	94	43.6	1	3	270	0.00	29.884 
16:50	45.1	45.1	45.1	94	43.5	1	4	315	0.00	29.884 
16:55	45.1	45.1	45.1	94	43.5	0	2	315	0.00	29.884 
17:00	44.9	44.9	44.9	94	43.3	0	1	315	0.01	29.884 
17:05	44.9	44.9	44.9	94	43.3	1	2	315	0.00	29.884 
17:10	44.6	44.6	44.6	93	42.7	1	3	270	0.01	29.884 
17:15	44.5	44.5	44.5	93	42.6	1	3	315	0.00	29.895 
17:20	44.2	44.2	44.2	93	42.3	1	4	292	0.00	29.895 
17:25	44.2	44.2	44.2	93	42.3	1	2	315	0.01	29.895 
17:30	44.1	44.1	44.1	93	42.2	1	3	270	0.00	29.908 
17:35	43.9	43.9	43.9	93	42.0	1	3	315	0.01	29.908 
17:40	43.9	43.9	43.9	93	42.0	1	3	315	0.00	29.908 
17:45	43.8	43.8	43.8	93	41.9	1	4	315	0.00	29.915 
17:50	43.5	43.5	43.5	93	41.6	1	3	315	0.01	29.915 
17:55	43.5	43.5	43.5	93	41.6	1	3	315	0.00	29.915 
18:00	43.3	43.3	43.3	93	41.4	1	4	292	0.00	29.918 
18:05	43.3	43.3	43.3	93	41.4	1	3	292	0.00	29.918 
18:10	43.3	43.3	43.3	94	41.7	1	3	292	0.01	29.918 
18:15	43.3	43.3	43.3	94	41.7	1	2	292	0.00	29.926 
18:20	43.2	43.2	43.2	94	41.6	1	3	292	0.00	29.926 
18:25	43.2	43.2	43.2	94	41.6	1	2	292	0.00	29.926 
18:30	43.1	43.1	43.1	94	41.5	1	3	292	0.00	29.933 
18:35	42.9	42.9	42.9	94	41.3	1	4	315	0.00	29.933 
18:40	42.6	42.6	42.6	93	40.7	2	6	270	0.00	29.933 
18:45	42.3	42.3	42.3	93	40.4	1	4	315	0.01	29.936 
18:50	42.2	42.2	42.2	93	40.3	0	2	315	0.00	29.936 
18:55	42.2	42.2	42.2	93	40.3	1	3	315	0.00	29.936 
19:00	42.2	42.2	42.2	93	40.3	1	4	315	0.00	29.953 
19:05	42.1	42.1	42.1	93	40.2	1	4	338	0.00	29.953 
19:10	42.1	42.1	42.1	94	40.5	1	4	292	0.01	29.953 
19:15	42.1	42.1	42.1	94	40.5	1	3	270	0.00	29.954 
19:20	41.9	41.9	41.9	93	40.0	1	4	270	0.00	29.954 
19:25	41.8	41.8	41.8	94	40.2	1	4	270	0.01	29.954 
19:30	41.6	41.6	41.6	94	40.0	1	6	0	0.00	29.956 
19:35	41.5	41.5	41.5	93	39.6	2	7	270	0.00	29.956 
19:40	41.2	41.2	41.2	93	39.3	1	4	0	0.00	29.956 
19:45	41.1	41.1	41.1	93	39.2	1	5	270	0.00	29.965 
19:50	40.8	40.8	40.8	93	38.9	1	5	270	0.00	29.965 
19:55	40.6	40.6	40.6	93	38.7	2	5	0	0.00	29.965 
20:00	40.5	40.5	40.5	93	38.6	1	4	292	0.00	29.971 
20:05	40.3	40.3	40.3	93	38.4	2	5	338	0.00	29.971 
20:10	40.2	40.2	40.2	93	38.3	1	5	315	0.00	29.971 
20:15	40.2	40.2	40.2	93	38.3	1	4	338	0.00	29.977 
20:20	40.2	40.2	40.2	93	38.3	0	2	0	0.00	29.977 
20:25	40.1	40.1	40.1	93	38.2	2	5	315	0.00	29.977 
20:30	40.1	40.1	40.1	93	38.2	0	2	22	0.01	29.993 
20:35	40.1	40.1	40.1	93	38.2	1	4	270	0.00	29.993 
20:40	39.9	39.9	39.9	93	38.0	1	5	338	0.00	29.993 
20:45	39.8	39.8	39.8	93	37.9	1	3	338	0.00	30.005 
20:50	39.5	39.5	39.5	93	37.6	1	4	292	0.00	30.005 
20:55	39.3	39.3	39.3	93	37.4	1	5	292	0.00	30.005 
21:00	39.3	39.3	39.3	93	37.4	1	4	248	0.00	30.016 
21:05	39.2	39.2	39.2	93	37.3	1	6	338	0.00	30.016 
21:10	38.9	38.9	38.9	93	37.1	1	4	315	0.00	30.016 
21:15	38.8	38.8	38.8	93	37.0	1	3	315	0.00	30.005 
21:20	38.6	38.6	38.6	92	36.5	1	4	315	0.00	30.005 
21:25	38.3	38.3	38.3	92	36.2	1	4	270	0.01	30.005 
21:30	38.2	38.2	38.2	92	36.1	1	3	0	0.00	30.015 
21:35	38.2	38.2	38.2	92	36.1	1	5	0	0.00	30.015 
21:40	38.2	38.2	38.2	92	36.1	1	3	315	0.00	30.015 
21:45	38.2	38.2	38.2	92	36.1	0	2	315	0.00	30.022 
21:50	38.2	38.2	38.2	92	36.1	1	3	315	0.00	30.022 
21:55	38.2	38.2	38.2	92	36.1	0	3	0	0.00	30.022 
22:00	38.2	38.2	38.2	92	36.1	0	1	0	0.01	30.023 
22:05	38.0	38.0	38.0	92	35.9	1	5	22	0.00	30.023 
22:10	38.0	38.0	38.0	92	35.9	0	3	292	0.00	30.023 
22:15	38.0	38.0	38.0	92	35.9	1	3	292	0.00	30.022 
22:20	37.9	37.9	37.9	92	35.8	0	2	315	0.00	30.022 
22:25	37.9	37.9	37.9	92	35.8	0	2	315	0.00	30.022 
22:30	37.9	37.9	37.9	92	35.8	0	2	315	0.00	30.039 
22:35	37.9	37.9	37.9	92	35.8	0	3	338	0.00	30.039 
22:40	37.9	37.9	37.9	92	35.8	0	2	248	0.00	30.039 
22:45	37.9	37.9	37.9	92	35.8	0	1	248	0.00	30.037 
22:50	37.9	37.9	37.9	92	35.8	0	2	248	0.00	30.037 
22:55	37.9	37.9	37.9	92	35.8	0	2	0	0.00	30.037 
23:00	37.9	37.9	37.9	93	36.1	0	1	0	0.00	30.034 
23:05	37.9	37.9	37.9	92	35.8	0	2	0	0.00	30.034 
23:10	37.8	37.8	37.8	92	35.7	0	1	0	0.01	30.034 
23:15	37.6	37.6	37.6	92	35.5	0	2	0	0.00	30.040 
23:20	37.5	37.5	37.5	92	35.4	0	3	0	0.00	30.040 
23:25	37.5	37.5	37.5	93	35.7	0	1	292	0.00	30.040 
23:30	37.5	37.5	37.5	93	35.7	0	2	315	0.00	30.034 
23:35	37.5	37.5	37.5	93	35.7	0	1	315	0.00	30.034 
23:40	37.3	37.3	37.3	93	35.5	0	2	315	0.00	30.034 
23:45	37.5	37.5	37.5	93	35.7	0	1	315	0.00	30.053 
23:50	37.5	37.5	37.5	93	35.7	0	1	315	0.01	30.053 
23:55	37.5	37.5	37.5	93	35.7	0	4	45	0.00	30.053 

CoCoRaHS
IN-AL-39
A2 Web Hosting
Creative Commons License
GoDaddy
search engine by freefind advanced

loaded 2018-11-20 09:05:44 • last modified 2010-11-18 10:43:29
Privacy PolicyDisclaimer
• wx.awcolley.com is powered by PmWiki v.2002016 •
• all content (unless otherwise noted) © 2018 A W Colley